Trail City, South Dakota
Current Conditions -  °F | °C
As of 2:52 AM on Thursday 23 Oct 2014 (Local Time) from KMBG Reporting Station
Clear Clear  
Wind Chill: 37°   Ceiling: Unl
Heat Index: 40°   Visibility: 10mi
Dew Point: 34°   Wind: 5mph
Humidity: 79%   Direction: 100°E
Pressure: 29.93"   Gusts: NA
Location:  45.47°N, 100.72°W
Report Text: KMBG 230852Z AUTO 10004KT 10SM CLR 04/01 A2993 RMK AO2 SLP138 T00440011 58003
Loading
Personal Weather Stations






























Interactive Weather Map
Tropical Storm Tracking
New forecast layout! Learn more

10-Day Weather Forecast

Advertisements
Track Severe Weather on mobile